sensor_id;sensor_type;location;lat;lon;timestamp;P1;durP1;ratioP1;P2;durP2;ratioP2
32032;SDS011;31720;52.638;9.216;2023-02-22T00:02:47;17.55;;;7.05;;
32032;SDS011;31720;52.638;9.216;2023-02-22T00:05:50;16.05;;;6.70;;
32032;SDS011;31720;52.638;9.216;2023-02-22T00:08:54;15.40;;;7.20;;
32032;SDS011;31720;52.638;9.216;2023-02-22T00:11:56;22.48;;;7.40;;
32032;SDS011;31720;52.638;9.216;2023-02-22T00:14:58;20.13;;;7.70;;
32032;SDS011;31720;52.638;9.216;2023-02-22T00:17:59;22.20;;;8.45;;
32032;SDS011;31720;52.638;9.216;2023-02-22T00:21:00;20.60;;;8.40;;
32032;SDS011;31720;52.638;9.216;2023-02-22T00:24:03;20.70;;;7.88;;
32032;SDS011;31720;52.638;9.216;2023-02-22T00:27:21;27.95;;;8.95;;
32032;SDS011;31720;52.638;9.216;2023-02-22T00:30:23;15.13;;;6.50;;
32032;SDS011;31720;52.638;9.216;2023-02-22T00:33:26;18.23;;;6.50;;
32032;SDS011;31720;52.638;9.216;2023-02-22T00:36:28;20.92;;;7.68;;
32032;SDS011;31720;52.638;9.216;2023-02-22T00:39:30;17.45;;;6.35;;
32032;SDS011;31720;52.638;9.216;2023-02-22T00:42:32;16.77;;;6.68;;
32032;SDS011;31720;52.638;9.216;2023-02-22T00:45:34;19.35;;;6.55;;
32032;SDS011;31720;52.638;9.216;2023-02-22T00:48:36;20.58;;;6.97;;
32032;SDS011;31720;52.638;9.216;2023-02-22T00:51:37;18.75;;;6.10;;
32032;SDS011;31720;52.638;9.216;2023-02-22T00:54:40;18.08;;;7.03;;
32032;SDS011;31720;52.638;9.216;2023-02-22T00:57:41;16.88;;;7.25;;
32032;SDS011;31720;52.638;9.216;2023-02-22T01:00:43;18.48;;;6.72;;
32032;SDS011;31720;52.638;9.216;2023-02-22T01:03:45;19.23;;;6.57;;
32032;SDS011;31720;52.638;9.216;2023-02-22T01:06:46;18.02;;;7.88;;
32032;SDS011;31720;52.638;9.216;2023-02-22T01:09:49;12.68;;;6.28;;
32032;SDS011;31720;52.638;9.216;2023-02-22T01:12:50;20.23;;;7.72;;
32032;SDS011;31720;52.638;9.216;2023-02-22T01:15:53;22.75;;;8.10;;
32032;SDS011;31720;52.638;9.216;2023-02-22T01:18:55;18.50;;;6.38;;
32032;SDS011;31720;52.638;9.216;2023-02-22T01:21:56;22.13;;;7.70;;
32032;SDS011;31720;52.638;9.216;2023-02-22T01:24:59;18.63;;;6.88;;
32032;SDS011;31720;52.638;9.216;2023-02-22T01:28:00;19.23;;;7.53;;
32032;SDS011;31720;52.638;9.216;2023-02-22T01:31:03;19.90;;;7.22;;
32032;SDS011;31720;52.638;9.216;2023-02-22T01:34:05;18.88;;;7.63;;
32032;SDS011;31720;52.638;9.216;2023-02-22T01:37:06;20.90;;;7.25;;
32032;SDS011;31720;52.638;9.216;2023-02-22T01:40:13;19.05;;;7.28;;
32032;SDS011;31720;52.638;9.216;2023-02-22T01:43:18;16.50;;;6.90;;
32032;SDS011;31720;52.638;9.216;2023-02-22T01:46:22;23.38;;;7.80;;
32032;SDS011;31720;52.638;9.216;2023-02-22T01:49:26;15.57;;;6.38;;
32032;SDS011;31720;52.638;9.216;2023-02-22T01:52:31;20.27;;;6.82;;
32032;SDS011;31720;52.638;9.216;2023-02-22T01:55:33;19.08;;;7.00;;
32032;SDS011;31720;52.638;9.216;2023-02-22T01:58:36;19.38;;;7.32;;
32032;SDS011;31720;52.638;9.216;2023-02-22T02:01:41;18.88;;;7.05;;
32032;SDS011;31720;52.638;9.216;2023-02-22T02:04:43;17.35;;;6.30;;
32032;SDS011;31720;52.638;9.216;2023-02-22T02:07:45;20.20;;;6.45;;
32032;SDS011;31720;52.638;9.216;2023-02-22T02:10:49;17.67;;;7.25;;
32032;SDS011;31720;52.638;9.216;2023-02-22T02:13:53;14.35;;;6.30;;
32032;SDS011;31720;52.638;9.216;2023-02-22T02:16:56;17.33;;;6.32;;
32032;SDS011;31720;52.638;9.216;2023-02-22T02:20:02;20.35;;;7.15;;
32032;SDS011;31720;52.638;9.216;2023-02-22T02:23:23;16.65;;;6.15;;
32032;SDS011;31720;52.638;9.216;2023-02-22T02:26:48;17.55;;;5.45;;
32032;SDS011;31720;52.638;9.216;2023-02-22T02:30:13;20.25;;;7.13;;
32032;SDS011;31720;52.638;9.216;2023-02-22T02:33:38;13.60;;;5.25;;
32032;SDS011;31720;52.638;9.216;2023-02-22T02:36:46;15.35;;;5.88;;
32032;SDS011;31720;52.638;9.216;2023-02-22T02:40:00;13.15;;;5.55;;
32032;SDS011;31720;52.638;9.216;2023-02-22T02:43:12;15.40;;;5.13;;
32032;SDS011;31720;52.638;9.216;2023-02-22T02:46:17;15.30;;;6.10;;
32032;SDS011;31720;52.638;9.216;2023-02-22T02:49:25;18.67;;;6.55;;
32032;SDS011;31720;52.638;9.216;2023-02-22T02:52:30;17.17;;;5.60;;
32032;SDS011;31720;52.638;9.216;2023-02-22T02:55:34;18.00;;;6.38;;
32032;SDS011;31720;52.638;9.216;2023-02-22T02:58:42;15.13;;;6.53;;
32032;SDS011;31720;52.638;9.216;2023-02-22T03:01:49;16.85;;;6.88;;
32032;SDS011;31720;52.638;9.216;2023-02-22T03:05:06;22.73;;;7.57;;
32032;SDS011;31720;52.638;9.216;2023-02-22T03:08:16;15.43;;;5.80;;
32032;SDS011;31720;52.638;9.216;2023-02-22T03:11:25;16.43;;;7.03;;
32032;SDS011;31720;52.638;9.216;2023-02-22T03:14:32;12.75;;;5.65;;
32032;SDS011;31720;52.638;9.216;2023-02-22T03:17:44;15.40;;;7.32;;
32032;SDS011;31720;52.638;9.216;2023-02-22T03:20:54;20.48;;;7.05;;
32032;SDS011;31720;52.638;9.216;2023-02-22T03:24:05;14.52;;;5.75;;
32032;SDS011;31720;52.638;9.216;2023-02-22T03:30:17;19.25;;;6.30;;
32032;SDS011;31720;52.638;9.216;2023-02-22T03:33:24;18.98;;;7.25;;
32032;SDS011;31720;52.638;9.216;2023-02-22T03:36:34;19.05;;;7.70;;
32032;SDS011;31720;52.638;9.216;2023-02-22T03:39:40;15.07;;;6.25;;
32032;SDS011;31720;52.638;9.216;2023-02-22T03:42:44;23.70;;;7.50;;
32032;SDS011;31720;52.638;9.216;2023-02-22T03:45:48;15.43;;;6.82;;
32032;SDS011;31720;52.638;9.216;2023-02-22T03:48:51;22.60;;;8.02;;
32032;SDS011;31720;52.638;9.216;2023-02-22T03:52:00;26.83;;;8.20;;
32032;SDS011;31720;52.638;9.216;2023-02-22T03:55:02;25.52;;;7.65;;
32032;SDS011;31720;52.638;9.216;2023-02-22T03:58:10;21.80;;;7.88;;
32032;SDS011;31720;52.638;9.216;2023-02-22T04:01:13;21.92;;;7.95;;
32032;SDS011;31720;52.638;9.216;2023-02-22T04:04:15;24.50;;;7.40;;
32032;SDS011;31720;52.638;9.216;2023-02-22T04:07:18;18.67;;;7.90;;
32032;SDS011;31720;52.638;9.216;2023-02-22T04:10:20;20.42;;;7.07;;
32032;SDS011;31720;52.638;9.216;2023-02-22T04:13:22;21.92;;;6.85;;
32032;SDS011;31720;52.638;9.216;2023-02-22T04:16:23;18.55;;;6.22;;
32032;SDS011;31720;52.638;9.216;2023-02-22T04:19:25;27.65;;;7.13;;
32032;SDS011;31720;52.638;9.216;2023-02-22T04:22:27;17.95;;;7.28;;
32032;SDS011;31720;52.638;9.216;2023-02-22T04:25:29;17.33;;;7.07;;
32032;SDS011;31720;52.638;9.216;2023-02-22T04:28:30;24.40;;;7.07;;
32032;SDS011;31720;52.638;9.216;2023-02-22T04:31:31;26.00;;;6.85;;
32032;SDS011;31720;52.638;9.216;2023-02-22T04:34:33;16.90;;;6.43;;
32032;SDS011;31720;52.638;9.216;2023-02-22T04:37:36;17.33;;;5.82;;
32032;SDS011;31720;52.638;9.216;2023-02-22T04:40:37;19.10;;;6.78;;
32032;SDS011;31720;52.638;9.216;2023-02-22T04:43:39;22.83;;;7.80;;
32032;SDS011;31720;52.638;9.216;2023-02-22T04:46:40;16.17;;;6.22;;
32032;SDS011;31720;52.638;9.216;2023-02-22T04:49:41;21.63;;;7.05;;
32032;SDS011;31720;52.638;9.216;2023-02-22T04:52:45;27.20;;;8.52;;
32032;SDS011;31720;52.638;9.216;2023-02-22T04:55:47;19.40;;;7.53;;
32032;SDS011;31720;52.638;9.216;2023-02-22T04:58:48;23.83;;;9.18;;
32032;SDS011;31720;52.638;9.216;2023-02-22T05:01:50;19.33;;;8.65;;
32032;SDS011;31720;52.638;9.216;2023-02-22T05:04:51;32.05;;;11.18;;
32032;SDS011;31720;52.638;9.216;2023-02-22T05:07:54;31.13;;;11.02;;
32032;SDS011;31720;52.638;9.216;2023-02-22T05:10:55;26.95;;;8.88;;
32032;SDS011;31720;52.638;9.216;2023-02-22T05:13:56;22.13;;;8.32;;
32032;SDS011;31720;52.638;9.216;2023-02-22T05:16:58;22.35;;;8.15;;
32032;SDS011;31720;52.638;9.216;2023-02-22T05:20:00;21.02;;;8.50;;
32032;SDS011;31720;52.638;9.216;2023-02-22T05:23:04;21.70;;;7.07;;
32032;SDS011;31720;52.638;9.216;2023-02-22T05:26:05;19.17;;;6.15;;
32032;SDS011;31720;52.638;9.216;2023-02-22T05:29:07;17.33;;;7.10;;
32032;SDS011;31720;52.638;9.216;2023-02-22T05:32:08;23.33;;;7.40;;
32032;SDS011;31720;52.638;9.216;2023-02-22T05:35:12;29.48;;;8.88;;
32032;SDS011;31720;52.638;9.216;2023-02-22T05:38:15;19.98;;;7.53;;
32032;SDS011;31720;52.638;9.216;2023-02-22T05:41:16;19.73;;;7.35;;
32032;SDS011;31720;52.638;9.216;2023-02-22T05:44:17;19.08;;;7.13;;
32032;SDS011;31720;52.638;9.216;2023-02-22T05:47:19;30.05;;;8.18;;
32032;SDS011;31720;52.638;9.216;2023-02-22T05:50:20;18.13;;;6.50;;
32032;SDS011;31720;52.638;9.216;2023-02-22T05:53:23;31.83;;;8.52;;
32032;SDS011;31720;52.638;9.216;2023-02-22T05:56:26;19.50;;;7.30;;
32032;SDS011;31720;52.638;9.216;2023-02-22T05:59:29;15.35;;;6.18;;
32032;SDS011;31720;52.638;9.216;2023-02-22T06:02:30;20.58;;;6.57;;
32032;SDS011;31720;52.638;9.216;2023-02-22T06:05:31;19.48;;;6.95;;
32032;SDS011;31720;52.638;9.216;2023-02-22T06:08:35;21.38;;;6.60;;
32032;SDS011;31720;52.638;9.216;2023-02-22T06:11:36;19.63;;;7.47;;
32032;SDS011;31720;52.638;9.216;2023-02-22T06:14:37;20.00;;;7.20;;
32032;SDS011;31720;52.638;9.216;2023-02-22T06:17:39;17.50;;;5.88;;
32032;SDS011;31720;52.638;9.216;2023-02-22T06:20:41;20.60;;;6.97;;
32032;SDS011;31720;52.638;9.216;2023-02-22T06:23:44;19.20;;;6.53;;
32032;SDS011;31720;52.638;9.216;2023-02-22T06:26:46;20.35;;;7.32;;
32032;SDS011;31720;52.638;9.216;2023-02-22T06:29:53;18.35;;;6.95;;
32032;SDS011;31720;52.638;9.216;2023-02-22T06:32:55;15.45;;;5.65;;
32032;SDS011;31720;52.638;9.216;2023-02-22T06:35:56;21.08;;;7.47;;
32032;SDS011;31720;52.638;9.216;2023-02-22T06:38:59;19.80;;;6.75;;
32032;SDS011;31720;52.638;9.216;2023-02-22T06:42:00;25.50;;;6.55;;
32032;SDS011;31720;52.638;9.216;2023-02-22T06:45:02;20.38;;;6.55;;
32032;SDS011;31720;52.638;9.216;2023-02-22T06:48:03;20.02;;;7.05;;
32032;SDS011;31720;52.638;9.216;2023-02-22T06:51:06;18.33;;;5.68;;
32032;SDS011;31720;52.638;9.216;2023-02-22T06:54:09;18.58;;;5.43;;
32032;SDS011;31720;52.638;9.216;2023-02-22T06:57:10;15.63;;;6.65;;
32032;SDS011;31720;52.638;9.216;2023-02-22T07:00:13;21.13;;;6.55;;
32032;SDS011;31720;52.638;9.216;2023-02-22T07:03:15;17.83;;;5.65;;
32032;SDS011;31720;52.638;9.216;2023-02-22T07:06:17;19.35;;;5.43;;
32032;SDS011;31720;52.638;9.216;2023-02-22T07:09:19;24.25;;;7.55;;
32032;SDS011;31720;52.638;9.216;2023-02-22T07:12:21;20.90;;;7.50;;
32032;SDS011;31720;52.638;9.216;2023-02-22T07:15:23;17.05;;;5.95;;
32032;SDS011;31720;52.638;9.216;2023-02-22T07:18:26;23.58;;;7.40;;
32032;SDS011;31720;52.638;9.216;2023-02-22T07:21:28;15.68;;;6.25;;
32032;SDS011;31720;52.638;9.216;2023-02-22T07:24:31;20.35;;;5.20;;
32032;SDS011;31720;52.638;9.216;2023-02-22T07:27:34;16.95;;;5.65;;
32032;SDS011;31720;52.638;9.216;2023-02-22T07:30:37;15.02;;;4.28;;
32032;SDS011;31720;52.638;9.216;2023-02-22T07:33:38;16.05;;;6.68;;
32032;SDS011;31720;52.638;9.216;2023-02-22T07:36:39;14.88;;;5.30;;
32032;SDS011;31720;52.638;9.216;2023-02-22T07:39:42;17.75;;;5.05;;
32032;SDS011;31720;52.638;9.216;2023-02-22T07:42:50;15.80;;;5.38;;
32032;SDS011;31720;52.638;9.216;2023-02-22T07:45:53;13.73;;;4.88;;
32032;SDS011;31720;52.638;9.216;2023-02-22T07:48:55;9.55;;;4.28;;
32032;SDS011;31720;52.638;9.216;2023-02-22T07:51:57;14.70;;;4.63;;
32032;SDS011;31720;52.638;9.216;2023-02-22T07:54:59;22.50;;;6.53;;
32032;SDS011;31720;52.638;9.216;2023-02-22T07:58:03;16.13;;;5.22;;
32032;SDS011;31720;52.638;9.216;2023-02-22T08:01:06;16.10;;;5.18;;
32032;SDS011;31720;52.638;9.216;2023-02-22T08:04:07;17.55;;;5.28;;
32032;SDS011;31720;52.638;9.216;2023-02-22T08:07:09;22.08;;;6.70;;
32032;SDS011;31720;52.638;9.216;2023-02-22T08:10:12;16.17;;;5.80;;
32032;SDS011;31720;52.638;9.216;2023-02-22T08:13:14;15.60;;;5.65;;
32032;SDS011;31720;52.638;9.216;2023-02-22T08:16:16;14.80;;;5.13;;
32032;SDS011;31720;52.638;9.216;2023-02-22T08:19:18;16.40;;;6.15;;
32032;SDS011;31720;52.638;9.216;2023-02-22T08:22:19;16.90;;;6.32;;
32032;SDS011;31720;52.638;9.216;2023-02-22T08:25:23;22.58;;;5.60;;
32032;SDS011;31720;52.638;9.216;2023-02-22T08:28:26;14.43;;;5.28;;
32032;SDS011;31720;52.638;9.216;2023-02-22T08:31:27;17.73;;;5.65;;
32032;SDS011;31720;52.638;9.216;2023-02-22T08:34:28;18.35;;;5.68;;
32032;SDS011;31720;52.638;9.216;2023-02-22T08:37:30;17.23;;;5.97;;
32032;SDS011;31720;52.638;9.216;2023-02-22T08:40:33;17.20;;;6.07;;
32032;SDS011;31720;52.638;9.216;2023-02-22T08:43:36;14.20;;;5.60;;
32032;SDS011;31720;52.638;9.216;2023-02-22T08:46:37;13.20;;;5.63;;
32032;SDS011;31720;52.638;9.216;2023-02-22T08:49:39;18.15;;;5.57;;
32032;SDS011;31720;52.638;9.216;2023-02-22T08:52:41;21.88;;;6.78;;
32032;SDS011;31720;52.638;9.216;2023-02-22T08:55:43;16.02;;;6.20;;
32032;SDS011;31720;52.638;9.216;2023-02-22T08:58:45;21.35;;;7.07;;
32032;SDS011;31720;52.638;9.216;2023-02-22T09:01:47;25.58;;;8.10;;
32032;SDS011;31720;52.638;9.216;2023-02-22T09:04:49;24.92;;;6.38;;
32032;SDS011;31720;52.638;9.216;2023-02-22T09:07:51;15.27;;;5.88;;
32032;SDS011;31720;52.638;9.216;2023-02-22T09:10:53;22.17;;;6.88;;
32032;SDS011;31720;52.638;9.216;2023-02-22T09:13:55;23.45;;;7.88;;
32032;SDS011;31720;52.638;9.216;2023-02-22T09:16:56;17.02;;;6.82;;
32032;SDS011;31720;52.638;9.216;2023-02-22T09:19:57;26.55;;;8.40;;
32032;SDS011;31720;52.638;9.216;2023-02-22T09:22:59;23.48;;;8.40;;
32032;SDS011;31720;52.638;9.216;2023-02-22T09:26:03;22.05;;;7.97;;
32032;SDS011;31720;52.638;9.216;2023-02-22T09:29:05;28.38;;;8.02;;
32032;SDS011;31720;52.638;9.216;2023-02-22T09:32:08;23.35;;;7.35;;
32032;SDS011;31720;52.638;9.216;2023-02-22T09:35:10;25.25;;;8.63;;
32032;SDS011;31720;52.638;9.216;2023-02-22T09:38:13;27.48;;;8.70;;
32032;SDS011;31720;52.638;9.216;2023-02-22T09:41:19;25.10;;;8.43;;
32032;SDS011;31720;52.638;9.216;2023-02-22T09:44:31;20.60;;;6.70;;
32032;SDS011;31720;52.638;9.216;2023-02-22T09:47:44;22.98;;;8.52;;
32032;SDS011;31720;52.638;9.216;2023-02-22T09:50:50;20.45;;;7.30;;
32032;SDS011;31720;52.638;9.216;2023-02-22T09:53:54;23.33;;;8.55;;
32032;SDS011;31720;52.638;9.216;2023-02-22T09:57:02;27.98;;;8.43;;
32032;SDS011;31720;52.638;9.216;2023-02-22T10:00:11;20.65;;;8.00;;
32032;SDS011;31720;52.638;9.216;2023-02-22T10:03:19;23.05;;;8.40;;
32032;SDS011;31720;52.638;9.216;2023-02-22T10:06:24;28.25;;;9.13;;
32032;SDS011;31720;52.638;9.216;2023-02-22T10:09:26;26.83;;;7.80;;
32032;SDS011;31720;52.638;9.216;2023-02-22T10:12:32;22.38;;;8.07;;
32032;SDS011;31720;52.638;9.216;2023-02-22T10:15:44;20.83;;;9.00;;
32032;SDS011;31720;52.638;9.216;2023-02-22T10:19:00;26.30;;;9.37;;
32032;SDS011;31720;52.638;9.216;2023-02-22T10:22:17;22.85;;;8.48;;
32032;SDS011;31720;52.638;9.216;2023-02-22T10:25:27;26.10;;;9.23;;
32032;SDS011;31720;52.638;9.216;2023-02-22T10:28:36;26.58;;;8.77;;
32032;SDS011;31720;52.638;9.216;2023-02-22T10:31:42;25.90;;;8.68;;
32032;SDS011;31720;52.638;9.216;2023-02-22T10:34:46;23.15;;;8.52;;
32032;SDS011;31720;52.638;9.216;2023-02-22T10:37:51;22.35;;;8.95;;
32032;SDS011;31720;52.638;9.216;2023-02-22T10:40:56;20.98;;;8.13;;
32032;SDS011;31720;52.638;9.216;2023-02-22T10:44:03;19.17;;;8.23;;
32032;SDS011;31720;52.638;9.216;2023-02-22T10:47:05;21.60;;;8.52;;
32032;SDS011;31720;52.638;9.216;2023-02-22T10:50:11;25.45;;;8.65;;
32032;SDS011;31720;52.638;9.216;2023-02-22T10:53:13;19.08;;;7.75;;
32032;SDS011;31720;52.638;9.216;2023-02-22T10:56:15;21.35;;;8.07;;
32032;SDS011;31720;52.638;9.216;2023-02-22T10:59:29;21.58;;;8.20;;
32032;SDS011;31720;52.638;9.216;2023-02-22T11:02:34;22.10;;;8.02;;
32032;SDS011;31720;52.638;9.216;2023-02-22T11:05:36;28.75;;;9.57;;
32032;SDS011;31720;52.638;9.216;2023-02-22T11:08:39;22.48;;;8.73;;
32032;SDS011;31720;52.638;9.216;2023-02-22T11:11:41;17.45;;;8.30;;
32032;SDS011;31720;52.638;9.216;2023-02-22T11:14:46;19.25;;;8.65;;
32032;SDS011;31720;52.638;9.216;2023-02-22T11:17:49;20.75;;;7.95;;
32032;SDS011;31720;52.638;9.216;2023-02-22T11:20:58;19.80;;;7.88;;
32032;SDS011;31720;52.638;9.216;2023-02-22T11:24:04;22.15;;;8.20;;
32032;SDS011;31720;52.638;9.216;2023-02-22T11:27:08;23.00;;;8.23;;
32032;SDS011;31720;52.638;9.216;2023-02-22T11:30:19;23.10;;;8.50;;
32032;SDS011;31720;52.638;9.216;2023-02-22T11:33:25;17.98;;;6.93;;
32032;SDS011;31720;52.638;9.216;2023-02-22T11:36:30;22.50;;;8.40;;
32032;SDS011;31720;52.638;9.216;2023-02-22T11:39:36;21.58;;;7.97;;
32032;SDS011;31720;52.638;9.216;2023-02-22T11:42:38;22.05;;;7.95;;
32032;SDS011;31720;52.638;9.216;2023-02-22T11:45:41;22.08;;;9.10;;
32032;SDS011;31720;52.638;9.216;2023-02-22T11:49:00;19.98;;;7.90;;
32032;SDS011;31720;52.638;9.216;2023-02-22T11:52:11;25.80;;;7.80;;
32032;SDS011;31720;52.638;9.216;2023-02-22T11:55:22;15.35;;;7.47;;
32032;SDS011;31720;52.638;9.216;2023-02-22T11:58:33;23.55;;;7.93;;
32032;SDS011;31720;52.638;9.216;2023-02-22T12:01:42;17.73;;;7.82;;
32032;SDS011;31720;52.638;9.216;2023-02-22T12:05:03;21.58;;;8.18;;
32032;SDS011;31720;52.638;9.216;2023-02-22T12:08:19;19.30;;;7.13;;
32032;SDS011;31720;52.638;9.216;2023-02-22T12:11:29;23.15;;;8.57;;
32032;SDS011;31720;52.638;9.216;2023-02-22T12:14:40;19.92;;;8.93;;
32032;SDS011;31720;52.638;9.216;2023-02-22T12:17:51;20.55;;;8.63;;
32032;SDS011;31720;52.638;9.216;2023-02-22T12:21:01;18.65;;;6.88;;
32032;SDS011;31720;52.638;9.216;2023-02-22T12:24:08;20.95;;;8.90;;
32032;SDS011;31720;52.638;9.216;2023-02-22T12:27:14;20.90;;;8.27;;
32032;SDS011;31720;52.638;9.216;2023-02-22T12:30:20;18.80;;;7.93;;
32032;SDS011;31720;52.638;9.216;2023-02-22T12:33:25;19.10;;;8.32;;
32032;SDS011;31720;52.638;9.216;2023-02-22T12:36:32;22.85;;;8.75;;
32032;SDS011;31720;52.638;9.216;2023-02-22T12:39:39;20.20;;;7.47;;
32032;SDS011;31720;52.638;9.216;2023-02-22T12:42:52;19.85;;;8.73;;
32032;SDS011;31720;52.638;9.216;2023-02-22T12:49:07;19.35;;;8.20;;
32032;SDS011;31720;52.638;9.216;2023-02-22T12:52:15;27.27;;;10.50;;
32032;SDS011;31720;52.638;9.216;2023-02-22T12:55:34;17.95;;;7.85;;
32032;SDS011;31720;52.638;9.216;2023-02-22T12:58:45;19.33;;;8.00;;
32032;SDS011;31720;52.638;9.216;2023-02-22T13:01:53;19.00;;;8.80;;
32032;SDS011;31720;52.638;9.216;2023-02-22T13:05:01;21.95;;;8.02;;
32032;SDS011;31720;52.638;9.216;2023-02-22T13:08:14;22.98;;;9.15;;
32032;SDS011;31720;52.638;9.216;2023-02-22T13:11:25;23.75;;;9.63;;
32032;SDS011;31720;52.638;9.216;2023-02-22T13:14:36;18.55;;;7.90;;
32032;SDS011;31720;52.638;9.216;2023-02-22T13:17:52;19.15;;;8.68;;
32032;SDS011;31720;52.638;9.216;2023-02-22T13:21:02;18.73;;;8.30;;
32032;SDS011;31720;52.638;9.216;2023-02-22T13:24:13;24.80;;;8.98;;
32032;SDS011;31720;52.638;9.216;2023-02-22T13:27:19;19.48;;;8.02;;
32032;SDS011;31720;52.638;9.216;2023-02-22T13:30:28;18.38;;;7.75;;
32032;SDS011;31720;52.638;9.216;2023-02-22T13:33:42;20.67;;;7.80;;
32032;SDS011;31720;52.638;9.216;2023-02-22T13:37:05;23.80;;;9.13;;
32032;SDS011;31720;52.638;9.216;2023-02-22T13:40:24;20.77;;;8.55;;
32032;SDS011;31720;52.638;9.216;2023-02-22T13:43:54;21.45;;;8.13;;
32032;SDS011;31720;52.638;9.216;2023-02-22T13:47:38;18.70;;;8.70;;
32032;SDS011;31720;52.638;9.216;2023-02-22T13:54:36;20.95;;;8.45;;
32032;SDS011;31720;52.638;9.216;2023-02-22T13:57:41;17.27;;;8.55;;
32032;SDS011;31720;52.638;9.216;2023-02-22T14:00:47;16.88;;;7.68;;
32032;SDS011;31720;52.638;9.216;2023-02-22T14:03:51;23.98;;;8.65;;
32032;SDS011;31720;52.638;9.216;2023-02-22T14:10:57;18.92;;;8.57;;
32032;SDS011;31720;52.638;9.216;2023-02-22T14:14:09;21.67;;;8.10;;
32032;SDS011;31720;52.638;9.216;2023-02-22T14:17:23;17.05;;;7.78;;
32032;SDS011;31720;52.638;9.216;2023-02-22T14:20:29;22.35;;;7.82;;
32032;SDS011;31720;52.638;9.216;2023-02-22T14:23:34;22.42;;;8.88;;
32032;SDS011;31720;52.638;9.216;2023-02-22T14:26:39;13.63;;;6.93;;
32032;SDS011;31720;52.638;9.216;2023-02-22T14:29:53;17.08;;;7.30;;
32032;SDS011;31720;52.638;9.216;2023-02-22T14:32:57;13.63;;;6.35;;
32032;SDS011;31720;52.638;9.216;2023-02-22T14:35:59;22.52;;;8.13;;
32032;SDS011;31720;52.638;9.216;2023-02-22T14:39:08;16.08;;;7.57;;
32032;SDS011;31720;52.638;9.216;2023-02-22T14:42:17;16.33;;;6.97;;
32032;SDS011;31720;52.638;9.216;2023-02-22T14:45:24;16.63;;;7.30;;
32032;SDS011;31720;52.638;9.216;2023-02-22T14:48:29;14.35;;;7.28;;
32032;SDS011;31720;52.638;9.216;2023-02-22T14:51:39;19.27;;;7.18;;
32032;SDS011;31720;52.638;9.216;2023-02-22T14:54:48;17.33;;;6.97;;
32032;SDS011;31720;52.638;9.216;2023-02-22T14:57:59;16.08;;;7.07;;
32032;SDS011;31720;52.638;9.216;2023-02-22T15:01:15;18.13;;;7.20;;
32032;SDS011;31720;52.638;9.216;2023-02-22T15:04:23;17.38;;;7.47;;
32032;SDS011;31720;52.638;9.216;2023-02-22T15:07:27;14.13;;;6.50;;
32032;SDS011;31720;52.638;9.216;2023-02-22T15:10:31;16.00;;;6.15;;
32032;SDS011;31720;52.638;9.216;2023-02-22T15:13:47;14.23;;;6.65;;
32032;SDS011;31720;52.638;9.216;2023-02-22T15:16:51;15.97;;;7.37;;
32032;SDS011;31720;52.638;9.216;2023-02-22T15:19:54;14.23;;;6.80;;
32032;SDS011;31720;52.638;9.216;2023-02-22T15:22:57;13.75;;;6.40;;
32032;SDS011;31720;52.638;9.216;2023-02-22T15:25:59;12.05;;;6.45;;
32032;SDS011;31720;52.638;9.216;2023-02-22T15:29:06;15.70;;;6.55;;
32032;SDS011;31720;52.638;9.216;2023-02-22T15:32:19;12.25;;;5.35;;
32032;SDS011;31720;52.638;9.216;2023-02-22T15:35:31;17.27;;;6.45;;
32032;SDS011;31720;52.638;9.216;2023-02-22T15:38:33;13.48;;;6.25;;
32032;SDS011;31720;52.638;9.216;2023-02-22T15:41:34;12.55;;;6.20;;
32032;SDS011;31720;52.638;9.216;2023-02-22T15:44:38;15.98;;;6.45;;
32032;SDS011;31720;52.638;9.216;2023-02-22T15:47:41;12.68;;;5.35;;
32032;SDS011;31720;52.638;9.216;2023-02-22T15:50:57;12.38;;;6.03;;
32032;SDS011;31720;52.638;9.216;2023-02-22T15:54:03;13.90;;;6.00;;
32032;SDS011;31720;52.638;9.216;2023-02-22T15:57:08;9.40;;;4.10;;
32032;SDS011;31720;52.638;9.216;2023-02-22T16:00:21;15.93;;;5.97;;
32032;SDS011;31720;52.638;9.216;2023-02-22T16:03:24;11.82;;;5.05;;
32032;SDS011;31720;52.638;9.216;2023-02-22T16:06:28;9.95;;;4.80;;
32032;SDS011;31720;52.638;9.216;2023-02-22T16:09:32;6.97;;;3.78;;
32032;SDS011;31720;52.638;9.216;2023-02-22T16:12:34;7.60;;;3.83;;
32032;SDS011;31720;52.638;9.216;2023-02-22T16:15:37;9.88;;;4.75;;
32032;SDS011;31720;52.638;9.216;2023-02-22T16:18:38;8.77;;;4.13;;
32032;SDS011;31720;52.638;9.216;2023-02-22T16:21:48;11.70;;;4.38;;
32032;SDS011;31720;52.638;9.216;2023-02-22T16:24:53;7.28;;;3.80;;
32032;SDS011;31720;52.638;9.216;2023-02-22T16:28:24;8.25;;;3.70;;
32032;SDS011;31720;52.638;9.216;2023-02-22T16:31:31;10.25;;;4.75;;
32032;SDS011;31720;52.638;9.216;2023-02-22T16:34:34;10.25;;;5.25;;
32032;SDS011;31720;52.638;9.216;2023-02-22T16:37:35;10.10;;;4.07;;
32032;SDS011;31720;52.638;9.216;2023-02-22T16:40:37;11.57;;;4.18;;
32032;SDS011;31720;52.638;9.216;2023-02-22T16:43:43;7.93;;;3.65;;
32032;SDS011;31720;52.638;9.216;2023-02-22T16:46:47;8.15;;;4.20;;
32032;SDS011;31720;52.638;9.216;2023-02-22T16:49:49;8.15;;;4.18;;
32032;SDS011;31720;52.638;9.216;2023-02-22T16:52:52;7.80;;;4.30;;
32032;SDS011;31720;52.638;9.216;2023-02-22T16:55:59;8.40;;;3.78;;
32032;SDS011;31720;52.638;9.216;2023-02-22T16:59:04;9.25;;;4.47;;
32032;SDS011;31720;52.638;9.216;2023-02-22T17:02:12;8.82;;;4.35;;
32032;SDS011;31720;52.638;9.216;2023-02-22T17:05:14;8.27;;;3.92;;
32032;SDS011;31720;52.638;9.216;2023-02-22T17:08:16;11.50;;;4.47;;
32032;SDS011;31720;52.638;9.216;2023-02-22T17:11:17;7.82;;;3.63;;
32032;SDS011;31720;52.638;9.216;2023-02-22T17:14:20;8.32;;;3.88;;
32032;SDS011;31720;52.638;9.216;2023-02-22T17:17:24;8.88;;;4.55;;
32032;SDS011;31720;52.638;9.216;2023-02-22T17:20:26;12.93;;;5.07;;
32032;SDS011;31720;52.638;9.216;2023-02-22T17:23:29;8.75;;;4.55;;
32032;SDS011;31720;52.638;9.216;2023-02-22T17:26:31;7.95;;;3.00;;
32032;SDS011;31720;52.638;9.216;2023-02-22T17:29:32;9.48;;;4.25;;
32032;SDS011;31720;52.638;9.216;2023-02-22T17:32:35;13.32;;;6.57;;
32032;SDS011;31720;52.638;9.216;2023-02-22T17:35:36;14.07;;;6.80;;
32032;SDS011;31720;52.638;9.216;2023-02-22T17:38:39;13.85;;;6.88;;
32032;SDS011;31720;52.638;9.216;2023-02-22T17:41:42;15.60;;;7.10;;
32032;SDS011;31720;52.638;9.216;2023-02-22T17:44:43;16.00;;;5.80;;
32032;SDS011;31720;52.638;9.216;2023-02-22T17:47:46;11.73;;;5.60;;
32032;SDS011;31720;52.638;9.216;2023-02-22T17:50:47;17.92;;;6.05;;
32032;SDS011;31720;52.638;9.216;2023-02-22T17:53:49;10.88;;;5.22;;
32032;SDS011;31720;52.638;9.216;2023-02-22T17:56:50;14.07;;;6.07;;
32032;SDS011;31720;52.638;9.216;2023-02-22T17:59:52;12.48;;;5.93;;
32032;SDS011;31720;52.638;9.216;2023-02-22T18:02:54;10.95;;;4.93;;
32032;SDS011;31720;52.638;9.216;2023-02-22T18:05:57;9.02;;;4.63;;
32032;SDS011;31720;52.638;9.216;2023-02-22T18:09:00;14.35;;;4.30;;
32032;SDS011;31720;52.638;9.216;2023-02-22T18:12:09;11.15;;;4.13;;
32032;SDS011;31720;52.638;9.216;2023-02-22T18:15:10;10.10;;;4.93;;
32032;SDS011;31720;52.638;9.216;2023-02-22T18:18:17;11.65;;;5.40;;
32032;SDS011;31720;52.638;9.216;2023-02-22T18:21:21;10.38;;;5.53;;
32032;SDS011;31720;52.638;9.216;2023-02-22T18:24:23;9.88;;;4.43;;
32032;SDS011;31720;52.638;9.216;2023-02-22T18:27:24;9.90;;;4.85;;
32032;SDS011;31720;52.638;9.216;2023-02-22T18:30:27;14.05;;;5.35;;
32032;SDS011;31720;52.638;9.216;2023-02-22T18:33:30;9.10;;;4.90;;
32032;SDS011;31720;52.638;9.216;2023-02-22T18:36:32;11.88;;;5.18;;